createdAt,value
2019-05-02T00:00:50.330Z,101539.67
2019-05-02T00:03:41.191Z,101543.84
2019-05-02T00:06:31.440Z,101541.72
2019-05-02T00:09:21.644Z,101537.89
2019-05-02T00:12:15.432Z,101534.44
2019-05-02T00:15:08.802Z,101529.75
2019-05-02T00:18:01.470Z,101529.91
2019-05-02T00:20:49.053Z,101522.94
2019-05-02T00:23:38.465Z,101521.68
2019-05-02T00:26:27.258Z,101521.84
2019-05-02T00:29:18.880Z,101523.28
2019-05-02T00:32:08.330Z,101522.53
2019-05-02T00:34:57.016Z,101523.55
2019-05-02T00:37:46.676Z,101525.42
2019-05-02T00:40:36.490Z,101525.11
2019-05-02T00:43:28.968Z,101516.75
2019-05-02T00:46:16.923Z,101518.23
2019-05-02T00:49:06.565Z,101508.50
2019-05-02T00:51:56.613Z,101500.66
2019-05-02T00:54:46.325Z,101504.34
2019-05-02T00:57:35.047Z,101502.64
2019-05-02T01:01:09.005Z,101500.97
2019-05-02T01:04:01.207Z,101493.11
2019-05-02T01:06:50.838Z,101487.87
2019-05-02T01:09:42.151Z,101483.98
2019-05-02T01:12:31.381Z,101479.19
2019-05-02T01:15:21.093Z,101480.15
2019-05-02T01:18:10.457Z,101483.30
2019-05-02T01:21:02.764Z,101476.33
2019-05-02T01:23:50.646Z,101471.05
2019-05-02T01:26:44.357Z,101474.23
2019-05-02T01:30:05.900Z,101464.11
2019-05-02T01:33:06.387Z,101472.12
2019-05-02T01:36:06.256Z,101465.52
2019-05-02T01:38:55.441Z,101457.64
2019-05-02T01:41:45.020Z,101458.21
2019-05-02T01:44:36.330Z,101459.12
2019-05-02T01:47:24.458Z,101447.68
2019-05-02T01:50:13.743Z,101449.48
2019-05-02T01:53:03.107Z,101447.34
2019-05-02T01:55:57.355Z,101450.00
2019-05-02T01:58:43.491Z,101444.68
2019-05-02T02:01:35.061Z,101442.41
2019-05-02T02:04:24.618Z,101440.64
2019-05-02T02:07:14.985Z,101440.64
2019-05-02T02:10:04.612Z,101436.98
2019-05-02T02:13:03.649Z,101431.27
2019-05-02T02:15:44.693Z,101435.21
2019-05-02T02:18:38.092Z,101432.92
2019-05-02T02:21:33.954Z,101437.82
2019-05-02T02:24:27.396Z,101431.97
2019-05-02T02:27:19.963Z,101427.48
2019-05-02T02:30:09.006Z,101424.30
2019-05-02T02:33:04.436Z,101418.06
2019-05-02T02:35:51.904Z,101415.88
2019-05-02T02:38:40.505Z,101420.20
2019-05-02T02:41:29.233Z,101414.00
2019-05-02T02:44:40.044Z,101418.00
2019-05-02T02:47:26.854Z,101422.41
2019-05-02T02:50:16.171Z,101416.17
2019-05-02T02:53:05.143Z,101407.30
2019-05-02T02:56:00.813Z,101409.52
2019-05-02T02:58:47.891Z,101406.44
2019-05-02T03:01:36.947Z,101406.02
2019-05-02T03:04:29.695Z,101394.05
2019-05-02T03:07:26.119Z,101395.91
2019-05-02T03:10:09.927Z,101392.41
2019-05-02T03:13:21.663Z,101391.59
2019-05-02T03:16:11.677Z,101384.99
2019-05-02T03:19:01.117Z,101385.48
2019-05-02T03:21:54.537Z,101391.44
2019-05-02T03:24:46.764Z,101384.36
2019-05-02T03:27:37.350Z,101379.14
2019-05-02T03:30:37.364Z,101380.11
2019-05-02T03:33:16.667Z,101379.73
2019-05-02T03:36:25.967Z,101372.66
2019-05-02T03:38:56.827Z,101365.25
2019-05-02T03:41:46.371Z,101362.22
2019-05-02T03:44:35.672Z,101360.94
2019-05-02T03:47:24.820Z,101357.86
2019-05-02T03:50:14.839Z,101357.55
2019-05-02T03:53:05.178Z,101352.27
2019-05-02T03:55:54.789Z,101353.28
2019-05-02T03:58:48.312Z,101352.42
2019-05-02T04:01:41.276Z,101353.81
2019-05-02T04:04:26.994Z,101353.44
2019-05-02T04:07:18.104Z,101344.17
2019-05-02T04:10:13.577Z,101347.36
2019-05-02T04:13:04.281Z,101346.47
2019-05-02T04:15:53.693Z,101338.53
2019-05-02T04:18:54.654Z,101339.44
2019-05-02T04:21:34.851Z,101334.22
2019-05-02T04:24:24.186Z,101336.02
2019-05-02T04:27:13.827Z,101336.08
2019-05-02T04:30:11.439Z,101337.41
2019-05-02T04:32:55.723Z,101334.75
2019-05-02T04:35:46.004Z,101337.84
2019-05-02T04:38:46.573Z,101336.08
2019-05-02T04:41:30.355Z,101332.09
2019-05-02T04:44:18.913Z,101330.23
2019-05-02T04:47:14.835Z,101321.77
2019-05-02T04:49:59.770Z,101324.32
2019-05-02T04:52:53.915Z,101314.96
2019-05-02T04:55:40.697Z,101313.00
2019-05-02T04:58:34.761Z,101306.28
2019-05-02T05:01:21.457Z,101311.45
2019-05-02T05:04:11.129Z,101299.78
2019-05-02T05:07:01.349Z,101304.48
2019-05-02T05:09:57.878Z,101297.70
2019-05-02T05:12:42.062Z,101302.00
2019-05-02T05:15:38.357Z,101295.69
2019-05-02T05:18:21.826Z,101295.99
2019-05-02T05:21:10.809Z,101297.58
2019-05-02T05:24:18.450Z,101292.09
2019-05-02T05:27:08.449Z,101286.69
2019-05-02T05:30:05.780Z,101288.75
2019-05-02T05:32:50.129Z,101290.80
2019-05-02T05:35:43.315Z,101292.44
2019-05-02T05:38:33.347Z,101287.00
2019-05-02T05:41:23.228Z,101287.25
2019-05-02T05:44:12.917Z,101298.56
2019-05-02T05:47:02.312Z,101297.92
2019-05-02T05:49:52.372Z,101298.22
2019-05-02T05:52:42.945Z,101297.61
2019-05-02T05:55:32.106Z,101289.91
2019-05-02T05:58:21.242Z,101298.15
2019-05-02T06:01:10.991Z,101293.09
2019-05-02T06:04:01.399Z,101298.27
2019-05-02T06:06:54.124Z,101294.58
2019-05-02T06:09:41.981Z,101294.84
2019-05-02T06:12:35.204Z,101293.80
2019-05-02T06:15:21.868Z,101296.77
2019-05-02T06:18:11.439Z,101292.61
2019-05-02T06:21:03.442Z,101291.52
2019-05-02T06:23:51.524Z,101290.80
2019-05-02T06:26:40.331Z,101286.11
2019-05-02T06:29:29.402Z,101285.00
2019-05-02T06:32:19.199Z,101278.97
2019-05-02T06:35:08.955Z,101289.80
2019-05-02T06:37:58.508Z,101286.41
2019-05-02T06:40:47.341Z,101274.49
2019-05-02T06:43:36.501Z,101270.67
2019-05-02T06:46:27.523Z,101265.80
2019-05-02T06:49:16.301Z,101263.18
2019-05-02T06:52:05.056Z,101260.52
2019-05-02T06:54:57.983Z,101260.47
2019-05-02T06:57:45.119Z,101262.31
2019-05-02T07:00:38.456Z,101267.58
2019-05-02T07:03:27.493Z,101263.98
2019-05-02T07:06:16.003Z,101258.10
2019-05-02T07:09:07.106Z,101261.55
2019-05-02T07:12:01.064Z,101260.37
2019-05-02T07:14:48.699Z,101254.14
2019-05-02T07:17:43.108Z,101257.52
2019-05-02T07:20:35.222Z,101259.66
2019-05-02T07:23:24.519Z,101258.76
2019-05-02T07:26:15.568Z,101254.61
2019-05-02T07:29:05.075Z,101250.16
2019-05-02T07:31:54.333Z,101256.02
2019-05-02T07:34:44.189Z,101249.38
2019-05-02T07:37:34.625Z,101247.19
2019-05-02T07:40:24.205Z,101246.78
2019-05-02T07:43:21.150Z,101243.34
2019-05-02T07:46:06.442Z,101249.17
2019-05-02T07:48:56.600Z,101256.81
2019-05-02T07:51:46.322Z,101249.63
2019-05-02T07:54:35.776Z,101244.20
2019-05-02T07:57:30.049Z,101240.94
2019-05-02T08:00:15.962Z,101242.50
2019-05-02T08:03:06.128Z,101234.75
2019-05-02T08:05:58.685Z,101233.30
2019-05-02T08:08:46.201Z,101232.81
2019-05-02T08:11:37.122Z,101228.66
2019-05-02T08:14:29.275Z,101238.41
2019-05-02T08:17:19.336Z,101238.89
2019-05-02T08:20:08.662Z,101236.17
2019-05-02T08:22:58.687Z,101233.44
2019-05-02T08:25:47.447Z,101238.20
2019-05-02T08:28:51.968Z,101236.90
2019-05-02T08:31:43.143Z,101239.63
2019-05-02T08:34:33.259Z,101244.84
2019-05-02T08:37:22.168Z,101242.09
2019-05-02T08:40:12.087Z,101243.47
2019-05-02T08:43:03.684Z,101242.64
2019-05-02T08:45:53.733Z,101234.59
2019-05-02T08:48:43.772Z,101240.39
2019-05-02T08:51:33.846Z,101237.33
2019-05-02T08:54:22.999Z,101234.25
2019-05-02T08:57:12.348Z,101238.40
2019-05-02T09:00:01.989Z,101238.05
2019-05-02T09:02:51.822Z,101242.00
2019-05-02T09:05:45.289Z,101242.03
2019-05-02T09:08:31.431Z,101232.63
2019-05-02T09:11:21.021Z,101234.47
2019-05-02T09:14:12.467Z,101232.23
2019-05-02T09:17:08.868Z,101237.72
2019-05-02T09:20:01.232Z,101240.70
2019-05-02T09:22:52.129Z,101241.00
2019-05-02T09:25:37.534Z,101247.23
2019-05-02T09:28:27.220Z,101238.87
2019-05-02T09:31:16.298Z,101237.16
2019-05-02T09:34:06.439Z,101236.28
2019-05-02T09:36:55.820Z,101238.51
2019-05-02T09:39:44.910Z,101242.34
2019-05-02T09:42:33.667Z,101241.95
2019-05-02T09:45:27.794Z,101240.31
2019-05-02T09:48:24.855Z,101241.85
2019-05-02T09:51:12.572Z,101247.91
2019-05-02T09:54:02.580Z,101236.86
2019-05-02T09:56:52.335Z,101241.09
2019-05-02T09:59:43.477Z,101242.13
2019-05-02T10:02:32.778Z,101241.34
2019-05-02T10:05:23.056Z,101242.78
2019-05-02T10:08:13.874Z,101244.69
2019-05-02T10:11:03.738Z,101245.17
2019-05-02T10:13:55.420Z,101238.71
2019-05-02T10:16:43.675Z,101246.97
2019-05-02T10:19:33.641Z,101239.59
2019-05-02T10:22:32.299Z,101240.23
2019-05-02T10:25:25.474Z,101243.11
2019-05-02T10:28:15.423Z,101235.60
2019-05-02T10:31:04.908Z,101236.19
2019-05-02T10:33:54.489Z,101231.09
2019-05-02T10:36:45.489Z,101227.16
2019-05-02T10:39:37.815Z,101228.20
2019-05-02T10:42:25.569Z,101222.12
2019-05-02T10:45:16.683Z,101221.73
2019-05-02T10:48:07.148Z,101224.13
2019-05-02T10:51:15.866Z,101224.44
2019-05-02T10:54:07.274Z,101222.70
2019-05-02T10:56:56.387Z,101220.56
2019-05-02T10:59:45.978Z,101222.88
2019-05-02T11:02:58.894Z,101220.84
2019-05-02T11:05:52.832Z,101222.37
2019-05-02T11:08:45.841Z,101222.06
2019-05-02T11:11:33.418Z,101225.03
2019-05-02T11:14:42.211Z,101223.48
2019-05-02T11:17:36.464Z,101223.75
2019-05-02T11:20:25.695Z,101223.05
2019-05-02T11:23:15.204Z,101226.87
2019-05-02T11:26:05.248Z,101222.16
2019-05-02T11:28:54.033Z,101223.20
2019-05-02T11:31:43.817Z,101213.05
2019-05-02T11:34:33.481Z,101212.34
2019-05-02T11:37:23.153Z,101214.17
2019-05-02T11:40:12.956Z,101213.28
2019-05-02T11:43:06.789Z,101204.86
2019-05-02T11:46:01.448Z,101204.38
2019-05-02T11:48:55.522Z,101199.49
2019-05-02T11:51:42.273Z,101204.86
2019-05-02T11:54:34.367Z,101202.94
2019-05-02T11:57:28.463Z,101205.84
2019-05-02T12:00:14.824Z,101200.69
2019-05-02T12:03:12.773Z,101202.60
2019-05-02T12:06:02.025Z,101192.86
2019-05-02T12:08:52.588Z,101194.62
2019-05-02T12:11:42.435Z,101202.22
2019-05-02T12:14:36.390Z,101196.96
2019-05-02T12:17:24.780Z,101198.91
2019-05-02T12:20:15.762Z,101194.89
2019-05-02T12:23:09.187Z,101193.66
2019-05-02T12:25:59.328Z,101191.44
2019-05-02T12:28:48.781Z,101187.22
2019-05-02T12:31:39.511Z,101188.77
2019-05-02T12:34:29.376Z,101194.44
2019-05-02T12:37:19.064Z,101188.41
2019-05-02T12:40:08.547Z,101191.39
2019-05-02T12:42:57.862Z,101181.39
2019-05-02T12:45:47.167Z,101183.33
2019-05-02T12:48:36.448Z,101183.17
2019-05-02T12:51:26.116Z,101181.53
2019-05-02T12:54:15.743Z,101182.97
2019-05-02T12:57:04.876Z,101179.33
2019-05-02T12:59:54.447Z,101172.99
2019-05-02T13:02:57.009Z,101169.80
2019-05-02T13:05:47.348Z,101173.83
2019-05-02T13:08:48.693Z,101168.43
2019-05-02T13:11:52.236Z,101169.02
2019-05-02T13:14:42.359Z,101166.41
2019-05-02T13:17:35.650Z,101166.20
2019-05-02T13:20:25.103Z,101166.85
2019-05-02T13:23:27.255Z,101162.25
2019-05-02T13:26:21.825Z,101157.61
2019-05-02T13:29:06.832Z,101164.14
2019-05-02T13:32:18.753Z,101157.34
2019-05-02T13:35:27.601Z,101157.70
2019-05-02T13:38:22.265Z,101154.05
2019-05-02T13:41:12.894Z,101153.45
2019-05-02T13:44:02.391Z,101155.08
2019-05-02T13:46:53.555Z,101150.48
2019-05-02T13:49:53.294Z,101148.92
2019-05-02T13:52:33.330Z,101149.67
2019-05-02T13:55:26.611Z,101149.85
2019-05-02T13:58:21.620Z,101150.23
2019-05-02T14:01:06.644Z,101139.75
2019-05-02T14:03:55.935Z,101152.13
2019-05-02T14:06:45.721Z,101143.37
2019-05-02T14:09:58.189Z,101135.36
2019-05-02T14:12:48.770Z,101131.50
2019-05-02T14:15:41.929Z,101133.33
2019-05-02T14:18:31.601Z,101130.21
2019-05-02T14:21:23.255Z,101131.23
2019-05-02T14:24:13.068Z,101123.22
2019-05-02T14:27:02.807Z,101127.81
2019-05-02T14:29:53.332Z,101127.88
2019-05-02T14:32:42.939Z,101124.36
2019-05-02T14:35:36.307Z,101118.56
2019-05-02T14:38:25.278Z,101125.52
2019-05-02T14:41:19.236Z,101127.61
2019-05-02T14:44:09.325Z,101126.41
2019-05-02T14:46:58.340Z,101123.24
2019-05-02T14:49:49.042Z,101116.92
2019-05-02T14:53:43.047Z,101122.28
2019-05-02T14:56:47.407Z,101121.50
2019-05-02T14:59:33.414Z,101124.38
2019-05-02T15:02:45.040Z,101116.42
2019-05-02T15:05:33.934Z,101114.92
2019-05-02T15:08:23.554Z,101117.31
2019-05-02T15:11:12.643Z,101122.26
2019-05-02T15:14:03.158Z,101122.34
2019-05-02T15:16:56.618Z,101115.25
2019-05-02T15:19:43.820Z,101119.08
2019-05-02T15:22:37.511Z,101121.33
2019-05-02T15:25:24.554Z,101110.47
2019-05-02T15:28:19.473Z,101115.31
2019-05-02T15:31:13.292Z,101112.08
2019-05-02T15:34:11.432Z,101115.01
2019-05-02T15:37:00.290Z,101126.53
2019-05-02T15:43:55.491Z,101131.75
2019-05-02T15:46:45.681Z,101124.11
2019-05-02T15:49:46.118Z,101138.27
2019-05-02T15:52:37.716Z,101133.97
2019-05-02T15:55:27.060Z,101120.47
2019-05-02T15:58:25.986Z,101131.09
2019-05-02T16:01:32.141Z,101130.05
2019-05-02T16:04:25.803Z,101133.03
2019-05-02T16:07:17.325Z,101128.50
2019-05-02T16:10:08.682Z,101131.52
2019-05-02T16:12:59.584Z,101141.22
2019-05-02T16:15:49.563Z,101134.64
2019-05-02T16:18:41.072Z,101133.58
2019-05-02T16:21:38.441Z,101129.98
2019-05-02T16:24:27.407Z,101136.62
2019-05-02T16:27:21.897Z,101134.94
2019-05-02T16:30:11.442Z,101138.87
2019-05-02T16:33:02.666Z,101141.55
2019-05-02T16:35:56.899Z,101139.51
2019-05-02T16:38:48.927Z,101143.13
2019-05-02T16:41:45.271Z,101142.27
2019-05-02T16:44:32.185Z,101149.22
2019-05-02T16:47:30.023Z,101139.31
2019-05-02T16:50:27.607Z,101145.23
2019-05-02T16:53:26.175Z,101147.62
2019-05-02T16:56:17.386Z,101156.63
2019-05-02T16:59:07.742Z,101146.18
2019-05-02T17:01:59.527Z,101145.56
2019-05-02T17:05:12.078Z,101152.80
2019-05-02T17:08:18.933Z,101158.59
2019-05-02T17:11:22.831Z,101161.41
2019-05-02T17:14:29.243Z,101155.72
2019-05-02T17:17:19.484Z,101156.80
2019-05-02T17:20:16.470Z,101156.30
2019-05-02T17:23:07.530Z,101153.55
2019-05-02T17:25:56.723Z,101152.28
2019-05-02T17:28:47.218Z,101160.81
2019-05-02T17:31:37.416Z,101166.52
2019-05-02T17:34:30.778Z,101161.94
2019-05-02T17:37:21.639Z,101168.13
2019-05-02T17:40:12.256Z,101166.13
2019-05-02T17:43:06.686Z,101171.23
2019-05-02T17:45:57.715Z,101170.53
2019-05-02T17:48:47.737Z,101175.27
2019-05-02T17:52:05.261Z,101177.66
2019-05-02T17:54:47.659Z,101180.42
2019-05-02T17:57:37.805Z,101186.08
2019-05-02T18:00:29.611Z,101189.41
2019-05-02T18:03:24.262Z,101189.48
2019-05-02T18:06:17.272Z,101180.70
2019-05-02T18:09:09.124Z,101186.72
2019-05-02T18:11:58.009Z,101192.77
2019-05-02T18:14:51.394Z,101187.43
2019-05-02T18:17:42.615Z,101188.90
2019-05-02T18:20:32.485Z,101193.98
2019-05-02T18:23:24.097Z,101198.17
2019-05-02T18:26:14.768Z,101200.02
2019-05-02T18:29:06.761Z,101203.81
2019-05-02T18:31:55.124Z,101206.18
2019-05-02T18:34:44.979Z,101205.39
2019-05-02T18:37:37.198Z,101212.16
2019-05-02T18:40:29.402Z,101215.44
2019-05-02T18:43:16.872Z,101214.70
2019-05-02T18:46:07.510Z,101222.80
2019-05-02T18:48:56.467Z,101219.34
2019-05-02T18:51:48.227Z,101217.64
2019-05-02T18:54:43.887Z,101222.45
2019-05-02T18:57:30.041Z,101215.23
2019-05-02T19:00:19.142Z,101223.41
2019-05-02T19:03:13.172Z,101221.58
2019-05-02T19:06:02.015Z,101232.23
2019-05-02T19:08:52.253Z,101224.17
2019-05-02T19:11:42.397Z,101227.64
2019-05-02T19:14:32.822Z,101233.02
2019-05-02T19:17:25.793Z,101238.39
2019-05-02T19:21:06.943Z,101243.73
2019-05-02T19:23:57.284Z,101243.98
2019-05-02T19:26:49.228Z,101246.29
2019-05-02T19:29:38.635Z,101247.98
2019-05-02T19:32:28.580Z,101252.39
2019-05-02T19:35:17.494Z,101257.65
2019-05-02T19:38:06.820Z,101256.19
2019-05-02T19:40:58.127Z,101256.47
2019-05-02T19:43:50.937Z,101265.75
2019-05-02T19:46:42.191Z,101266.48
2019-05-02T19:49:32.850Z,101260.99
2019-05-02T19:52:23.157Z,101269.81
2019-05-02T19:55:20.023Z,101277.34
2019-05-02T19:58:06.532Z,101280.67
2019-05-02T20:00:55.695Z,101280.63
2019-05-02T20:03:45.675Z,101288.95
2019-05-02T20:06:34.996Z,101283.85
2019-05-02T20:09:27.308Z,101285.15
2019-05-02T20:12:16.967Z,101292.98
2019-05-02T20:15:06.595Z,101292.27
2019-05-02T20:18:00.717Z,101296.16
2019-05-02T20:21:12.213Z,101293.64
2019-05-02T20:24:02.066Z,101289.03
2019-05-02T20:26:56.124Z,101292.31
2019-05-02T20:29:48.067Z,101298.02
2019-05-02T20:32:37.010Z,101299.05
2019-05-02T20:35:27.172Z,101293.94
2019-05-02T20:38:19.337Z,101303.95
2019-05-02T20:41:09.841Z,101299.25
2019-05-02T20:44:02.746Z,101299.47
2019-05-02T20:46:52.143Z,101303.17
2019-05-02T20:49:42.798Z,101307.00
2019-05-02T20:52:32.409Z,101305.88
2019-05-02T20:55:23.112Z,101301.63
2019-05-02T20:58:12.823Z,101302.76
2019-05-02T21:01:08.538Z,101309.14
2019-05-02T21:03:54.521Z,101302.66
2019-05-02T21:07:02.030Z,101308.27
2019-05-02T21:09:55.359Z,101313.80
2019-05-02T21:12:46.953Z,101311.44
2019-05-02T21:15:36.172Z,101309.95
2019-05-02T21:18:26.065Z,101312.79
2019-05-02T21:21:39.892Z,101318.84
2019-05-02T21:24:32.734Z,101310.16
2019-05-02T21:27:26.276Z,101317.58
2019-05-02T21:30:24.078Z,101316.86
2019-05-02T21:33:34.633Z,101323.39
2019-05-02T21:36:31.823Z,101326.39
2019-05-02T21:39:24.209Z,101321.80
2019-05-02T21:42:15.030Z,101317.61
2019-05-02T21:45:09.305Z,101322.79
2019-05-02T21:48:03.322Z,101328.38
2019-05-02T21:51:02.567Z,101328.53
2019-05-02T21:54:32.581Z,101328.28
2019-05-02T21:57:22.711Z,101327.22
2019-05-02T22:00:17.375Z,101334.52
2019-05-02T22:03:09.247Z,101338.77
2019-05-02T22:06:01.331Z,101339.84
2019-05-02T22:08:52.349Z,101338.17
2019-05-02T22:11:43.765Z,101339.33
2019-05-02T22:14:36.084Z,101336.02
2019-05-02T22:17:25.863Z,101331.27
2019-05-02T22:20:16.073Z,101333.69
2019-05-02T22:23:06.807Z,101331.09
2019-05-02T22:25:58.216Z,101331.31
2019-05-02T22:28:48.007Z,101333.31
2019-05-02T22:31:37.848Z,101330.86
2019-05-02T22:34:27.842Z,101328.78
2019-05-02T22:37:18.988Z,101328.55
2019-05-02T22:40:10.407Z,101324.72
2019-05-02T22:43:01.953Z,101326.77
2019-05-02T22:45:51.358Z,101337.20
2019-05-02T22:48:42.316Z,101340.94
2019-05-02T22:51:32.023Z,101340.19
2019-05-02T22:54:27.915Z,101337.73
2019-05-02T22:57:14.360Z,101345.04
2019-05-02T23:00:06.838Z,101347.45
2019-05-02T23:02:56.693Z,101352.05
2019-05-02T23:05:46.460Z,101350.44
2019-05-02T23:08:37.771Z,101349.31
2019-05-02T23:11:27.961Z,101350.30
2019-05-02T23:14:19.062Z,101358.46
2019-05-02T23:17:08.784Z,101362.13
2019-05-02T23:19:57.678Z,101351.58
2019-05-02T23:22:48.551Z,101365.00
2019-05-02T23:26:12.887Z,101359.25
2019-05-02T23:29:03.385Z,101361.20
2019-05-02T23:31:52.618Z,101363.53
2019-05-02T23:34:42.386Z,101361.85
2019-05-02T23:37:32.618Z,101365.52
2019-05-02T23:40:22.427Z,101366.06
2019-05-02T23:43:12.486Z,101363.52
2019-05-02T23:46:02.621Z,101364.52
2019-05-02T23:48:52.634Z,101360.57
2019-05-02T23:51:42.911Z,101354.82
2019-05-02T23:54:32.468Z,101359.81
2019-05-02T23:57:23.514Z,101352.28
